Earth City, Missouri
Current Conditions -  °F | °C
As of 6:15 PM on Sunday 23 Nov 2014 (Local Time) from KSTL Reporting Station
Light Rain Light Rain  
Wind Chill: 55°   Ceiling: 500
Heat Index: 55°   Visibility: 2.5mi
Dew Point: 54°   Wind: 5mph
Humidity: 94%   Direction: 150°SSE
Pressure: 29.29"   Gusts: NA
Location:  38.77°N, 90.47°W
Report Text: KSTL 240015Z 15004KT 2 1/2SM -RA BR OVC005 13/12 A2929 RMK AO2 P0002
Loading
Personal Weather Stations






























Interactive Weather Map New forecast layout! Learn more

10-Day Weather Forecast

Advertisements
Track Severe Weather on mobile